createdAt,value
2018-10-11T01:13:12.057Z,101942.97
2018-10-11T01:24:40.065Z,101928.54
2018-10-11T02:22:01.075Z,101877.87
2018-10-11T02:24:43.350Z,101882.17
2018-10-11T03:18:49.034Z,101832.60
2018-10-11T04:15:57.545Z,101802.14
2018-10-11T04:18:25.816Z,101802.55
2018-10-11T04:24:01.808Z,101802.39
2018-10-11T05:24:03.418Z,101784.44
2018-10-11T06:24:02.755Z,101746.41
2018-10-11T08:18:57.462Z,101778.09
2018-10-11T09:12:33.165Z,101710.31
2018-10-11T09:21:18.181Z,101715.34
2018-10-11T09:26:38.905Z,101724.97
2018-10-11T09:29:10.580Z,101718.49
2018-10-11T09:31:38.828Z,101716.03
2018-10-11T09:34:07.177Z,101715.23
2018-10-11T09:36:35.610Z,101716.70
2018-10-11T09:39:07.124Z,101710.59
2018-10-11T09:41:35.393Z,101697.96
2018-10-11T09:44:03.664Z,101697.89
2018-10-11T09:46:32.014Z,101704.19
2018-10-11T09:49:00.274Z,101704.61
2018-10-11T09:51:28.494Z,101701.81
2018-10-11T09:53:56.723Z,101696.47
2018-10-11T09:56:32.758Z,101692.19
2018-10-11T09:59:01.030Z,101689.45
2018-10-11T10:01:34.615Z,101695.14
2018-10-11T10:04:02.875Z,101693.77
2018-10-11T10:06:31.157Z,101695.55
2018-10-11T10:08:59.990Z,101698.97
2018-10-11T10:11:28.254Z,101697.53
2018-10-11T10:14:09.098Z,101692.13
2018-10-11T13:27:30.190Z,101532.72
2018-10-11T13:29:58.429Z,101515.72
2018-10-11T13:32:26.706Z,101517.98
2018-10-11T13:34:54.968Z,101511.14
2018-10-11T13:37:23.266Z,101521.27
2018-10-11T13:39:54.792Z,101533.06
2018-10-11T13:42:19.815Z,101524.16
2018-10-11T13:44:48.050Z,101528.45
2018-10-11T13:47:16.321Z,101529.96
2018-10-11T13:49:44.593Z,101515.80
2018-10-11T13:52:15.494Z,101520.73
2018-10-11T13:54:41.120Z,101512.22
2018-10-11T13:57:09.451Z,101518.98
2018-10-11T13:59:37.741Z,101516.20
2018-10-11T14:02:06.018Z,101514.59
2018-10-11T14:04:34.345Z,101523.22
2018-10-11T14:07:02.626Z,101522.27
2018-10-11T14:09:30.880Z,101508.09
2018-10-11T14:11:59.149Z,101517.52
2018-10-11T14:23:21.678Z,101518.37
2018-10-11T14:25:49.901Z,101525.41
2018-10-11T17:20:21.683Z,101626.77
2018-10-11T18:12:13.481Z,101631.89
2018-10-11T18:14:41.839Z,101632.84
2018-10-11T18:20:02.388Z,101638.65
2018-10-11T18:22:37.412Z,101645.84
2018-10-11T18:25:06.974Z,101641.89
2018-10-11T18:27:35.498Z,101635.69
2018-10-11T18:30:03.836Z,101637.59
2018-10-11T18:32:32.173Z,101634.38
2018-10-11T18:35:00.456Z,101644.66
2018-10-11T18:37:28.865Z,101644.32
2018-10-11T18:39:57.280Z,101650.22
2018-10-11T18:42:26.644Z,101642.12
2018-10-11T18:44:54.981Z,101648.48
2018-10-11T18:47:23.274Z,101644.82
2018-10-11T18:49:51.588Z,101647.97
2018-10-11T18:52:19.857Z,101648.44
2018-10-11T18:54:48.161Z,101655.20
2018-10-11T18:57:16.490Z,101649.80
2018-10-11T18:59:44.773Z,101643.52
2018-10-11T19:02:13.107Z,101645.78
2018-10-11T19:04:41.502Z,101649.45
2018-10-11T19:07:10.082Z,101641.89
2018-10-11T19:09:38.373Z,101648.69
2018-10-11T19:12:06.639Z,101645.98
2018-10-11T19:14:37.901Z,101654.94
2018-10-11T19:31:29.679Z,101644.23
2018-10-11T19:33:58.016Z,101647.81
2018-10-11T19:36:26.314Z,101647.84
2018-10-11T19:38:54.617Z,101649.66
2018-10-11T19:41:22.929Z,101648.78
2018-10-11T19:43:51.202Z,101655.95
2018-10-11T19:46:19.461Z,101654.16
2018-10-11T19:48:47.753Z,101647.94
2018-10-11T19:51:16.185Z,101650.59
2018-10-11T19:53:44.485Z,101644.34
2018-10-11T19:56:12.840Z,101649.71
2018-10-11T19:58:41.103Z,101645.25
2018-10-11T20:01:09.385Z,101649.72
2018-10-11T20:03:38.318Z,101639.44
2018-10-11T20:06:06.757Z,101647.53
2018-10-11T20:08:35.042Z,101642.16
2018-10-11T20:11:03.346Z,101648.88
2018-10-11T20:16:24.165Z,101645.31
2018-10-11T20:18:52.446Z,101655.66
2018-10-11T21:19:17.665Z,101667.42
2018-10-11T21:21:51.649Z,101662.53
2018-10-11T21:27:22.209Z,101665.19
2018-10-11T21:29:50.477Z,101662.97
2018-10-11T21:32:18.753Z,101662.98
2018-10-11T21:34:47.037Z,101668.33
2018-10-11T21:37:15.310Z,101668.77
2018-10-11T21:39:43.627Z,101669.67
2018-10-11T21:42:11.880Z,101674.11
2018-10-11T21:44:40.175Z,101665.19
2018-10-11T21:47:08.433Z,101670.11
2018-10-11T21:49:36.729Z,101670.98
2018-10-11T21:52:05.021Z,101671.46
2018-10-11T21:54:33.294Z,101679.91
2018-10-11T21:57:01.541Z,101676.31
2018-10-11T21:59:29.839Z,101672.76
2018-10-11T22:01:58.112Z,101670.08
2018-10-11T22:04:26.401Z,101674.10
2018-10-11T22:06:54.726Z,101668.31
2018-10-11T22:09:23.020Z,101666.09
2018-10-11T22:11:51.297Z,101665.62
